Time;durP1;ratioP1;P1;durP2;ratioP2;P2;SDS_P1;SDS_P2;PMS_P1;PMS_P2;Temp;Humidity;BMP_temperature;BMP_pressure;BME280_temperature;BME280_humidity;BME280_pressure;Samples;Min_cycle;Max_cycle;Signal;HPM_P1;HPM_P2
2022/06/07 00:00:53;;;;;;;5.80;3.63;;;15.70;98.00;;;;;;5011838;28;20053;-69
2022/06/07 00:03:19;;;;;;;4.47;3.45;;;15.70;98.00;;;;;;5012968;28;20700;-69
2022/06/07 00:05:46;;;;;;;3.97;3.40;;;15.70;98.10;;;;;;5014699;28;20493;-69
2022/06/07 00:08:12;;;;;;;3.70;3.08;;;15.70;98.10;;;;;;5013811;28;20436;-69
2022/06/07 00:10:38;;;;;;;3.40;3.10;;;15.70;97.90;;;;;;5010469;28;20088;-69
2022/06/07 00:13:05;;;;;;;4.60;3.35;;;15.70;97.80;;;;;;5019642;28;20065;-69
2022/06/07 00:15:30;;;;;;;4.50;3.25;;;15.70;98.10;;;;;;5014981;28;20259;-69
2022/06/07 00:17:56;;;;;;;3.85;3.15;;;15.70;97.90;;;;;;5012737;28;20597;-69
2022/06/07 00:20:22;;;;;;;6.30;3.13;;;15.70;97.90;;;;;;5014977;28;20064;-69
2022/06/07 00:22:48;;;;;;;3.60;3.30;;;15.70;97.90;;;;;;5016805;28;20806;-69
2022/06/07 00:25:16;;;;;;;5.00;3.38;;;15.60;97.90;;;;;;5014920;28;20819;-69
2022/06/07 00:27:43;;;;;;;3.65;3.33;;;15.70;98.00;;;;;;5010429;28;20045;-69
2022/06/07 00:30:11;;;;;;;4.22;3.15;;;15.70;97.90;;;;;;5010746;28;20103;-69
2022/06/07 00:32:39;;;;;;;4.28;2.90;;;15.70;97.90;;;;;;5018426;28;20033;-69
2022/06/07 00:35:05;;;;;;;3.92;3.38;;;15.70;97.80;;;;;;5013829;28;20034;-69
2022/06/07 00:37:31;;;;;;;4.60;2.85;;;15.70;97.80;;;;;;5014868;28;20033;-69
2022/06/07 00:39:57;;;;;;;4.95;3.13;;;15.70;98.00;;;;;;5017015;28;20032;-69
2022/06/07 00:42:23;;;;;;;3.88;2.78;;;15.70;98.00;;;;;;5019457;28;20029;-69
2022/06/07 00:44:49;;;;;;;3.85;2.90;;;15.70;97.80;;;;;;5010461;28;20029;-68
2022/06/07 00:47:23;;;;;;;4.05;3.38;;;15.70;97.80;;;;;;5009110;28;20037;-69
2022/06/07 00:50:00;;;;;;;3.55;3.10;;;15.70;97.80;;;;;;5010826;28;20036;-69
2022/06/07 00:52:29;;;;;;;3.28;2.95;;;15.80;97.60;;;;;;5012281;28;20573;-69
2022/06/07 00:54:56;;;;;;;3.78;3.45;;;15.80;97.60;;;;;;5015290;28;20397;-69
2022/06/07 00:57:32;;;;;;;;;;;15.70;97.40;;;;;;5014078;28;20088;-69
2022/06/07 01:00:01;;;;;;;4.45;3.67;;;15.70;97.60;;;;;;5029217;28;20659;-69
2022/06/07 01:02:28;;;;;;;5.10;3.78;;;15.70;97.90;;;;;;5008113;28;20406;-69
2022/06/07 01:04:55;;;;;;;3.97;3.60;;;15.70;98.10;;;;;;5015782;28;20081;-69
2022/06/07 01:12:56;;;;;;;4.15;3.65;;;15.70;98.40;;;;;;5015929;28;20032;-69
2022/06/07 01:15:24;;;;;;;4.38;3.97;;;15.70;98.40;;;;;;5010684;28;20032;-69
2022/06/07 01:17:52;;;;;;;4.88;3.83;;;15.70;98.40;;;;;;5008990;28;20022;-69
2022/06/07 01:20:18;;;;;;;3.92;3.38;;;15.70;98.50;;;;;;5007477;28;20060;-69
2022/06/07 01:22:44;;;;;;;3.80;3.35;;;15.70;98.50;;;;;;5012551;28;20880;-69
2022/06/07 01:25:10;;;;;;;4.55;3.35;;;15.70;98.60;;;;;;5010556;28;20038;-69
2022/06/07 01:27:37;;;;;;;4.10;3.53;;;15.60;98.60;;;;;;5015628;28;20038;-69
2022/06/07 01:30:05;;;;;;;5.45;3.75;;;15.60;98.60;;;;;;5017885;28;20036;-69
2022/06/07 01:32:31;;;;;;;4.30;3.80;;;15.60;98.50;;;;;;5017928;28;20116;-69
2022/06/07 01:34:57;;;;;;;4.65;3.72;;;15.50;98.40;;;;;;5010463;28;20437;-69
2022/06/07 01:37:23;;;;;;;4.10;3.63;;;15.50;98.30;;;;;;5017577;28;20576;-69
2022/06/07 01:42:33;;;;;;;4.05;3.65;;;15.40;98.30;;;;;;5012121;28;20053;-69
2022/06/07 01:44:59;;;;;;;4.90;4.20;;;15.50;98.70;;;;;;5010746;28;20064;-69
2022/06/07 01:47:29;;;;;;;6.13;4.10;;;15.50;98.50;;;;;;5016881;28;20038;-69
2022/06/07 01:49:57;;;;;;;4.43;3.55;;;15.40;98.60;;;;;;5016640;28;20056;-69
2022/06/07 01:52:26;;;;;;;5.25;4.07;;;15.40;98.60;;;;;;5015030;28;20049;-69
2022/06/07 01:54:57;;;;;;;3.20;2.90;;;15.40;98.70;;;;;;5016029;28;20029;-69
2022/06/07 01:57:24;;;;;;;6.60;3.70;;;15.40;98.80;;;;;;5013968;28;20040;-69
2022/06/07 01:59:55;;;;;;;4.63;3.55;;;15.40;98.80;;;;;;5011541;28;20040;-69
2022/06/07 02:02:27;;;;;;;6.70;4.40;;;15.40;98.90;;;;;;5012611;28;20029;-69
2022/06/07 02:04:54;;;;;;;4.03;3.65;;;15.40;98.90;;;;;;5011383;28;20053;-69
2022/06/07 02:07:21;;;;;;;4.18;3.65;;;15.40;98.80;;;;;;5014051;28;20033;-69
2022/06/07 02:09:52;;;;;;;5.55;4.10;;;15.40;98.80;;;;;;5015213;28;20022;-69
2022/06/07 02:12:19;;;;;;;4.57;3.53;;;15.40;98.70;;;;;;5019352;28;20037;-69
2022/06/07 02:14:45;;;;;;;3.58;3.20;;;15.40;98.60;;;;;;5019787;28;20029;-69
2022/06/07 02:17:11;;;;;;;4.20;3.13;;;15.40;98.60;;;;;;5009106;28;20289;-69
2022/06/07 02:19:50;;;;;;;3.72;3.33;;;15.40;98.60;;;;;;5014290;28;20060;-69
2022/06/07 02:22:19;;;;;;;3.20;2.90;;;15.30;98.60;;;;;;5016277;28;20512;-69
2022/06/07 02:24:44;;;;;;;3.58;3.25;;;15.30;98.60;;;;;;5020240;28;20030;-69
2022/06/07 02:27:14;;;;;;;3.60;3.30;;;15.30;98.40;;;;;;5018823;28;20033;-69
2022/06/07 02:29:47;;;;;;;3.60;2.97;;;15.20;98.20;;;;;;5019015;28;20463;-69
2022/06/07 02:32:15;;;;;;;5.60;3.00;;;15.20;98.30;;;;;;5019726;28;20076;-69
2022/06/07 02:34:45;;;;;;;3.45;2.97;;;15.20;98.60;;;;;;5019388;28;20047;-69
2022/06/07 02:37:13;;;;;;;4.45;2.95;;;15.20;98.30;;;;;;5015658;28;20033;-69
2022/06/07 02:39:39;;;;;;;3.05;2.75;;;15.20;98.30;;;;;;5017636;28;20032;-69
2022/06/07 02:42:07;;;;;;;2.90;2.58;;;15.20;98.30;;;;;;5013603;28;20072;-69
2022/06/07 02:44:33;;;;;;;3.53;2.78;;;15.10;98.20;;;;;;5018208;28;20799;-69
2022/06/07 02:46:59;;;;;;;2.72;2.40;;;15.10;98.10;;;;;;5017365;28;20201;-69
2022/06/07 02:49:25;;;;;;;3.10;2.70;;;15.00;98.00;;;;;;5019311;28;20474;-69
2022/06/07 02:51:52;;;;;;;2.88;2.67;;;15.00;98.00;;;;;;5020629;28;20029;-69
2022/06/07 02:54:18;;;;;;;4.13;3.25;;;15.00;98.00;;;;;;5013009;28;20095;-69
2022/06/07 02:56:44;;;;;;;3.35;2.72;;;14.90;97.60;;;;;;5015101;28;20109;-69
2022/06/07 02:59:11;;;;;;;3.45;2.70;;;14.80;97.60;;;;;;5011009;28;20569;-69
2022/06/07 03:01:37;;;;;;;3.78;2.33;;;14.70;97.60;;;;;;5017867;28;20353;-69
2022/06/07 03:04:05;;;;;;;3.00;2.80;;;14.70;97.70;;;;;;5015675;28;20414;-69
2022/06/07 03:06:33;;;;;;;3.38;3.03;;;14.70;97.80;;;;;;5017980;28;20026;-69
2022/06/07 03:09:00;;;;;;;3.05;2.75;;;14.70;97.80;;;;;;5012916;28;20889;-69
2022/06/07 03:11:26;;;;;;;2.85;2.58;;;14.70;97.80;;;;;;5016894;28;20116;-69
2022/06/07 03:13:53;;;;;;;2.90;2.60;;;14.60;97.60;;;;;;5035428;28;20730;-70
2022/06/07 03:16:26;;;;;;;3.13;2.67;;;14.60;97.60;;;;;;5014852;28;20669;-69
2022/06/07 03:18:55;;;;;;;4.47;2.45;;;14.60;97.60;;;;;;5015704;28;20028;-69
2022/06/07 03:21:22;;;;;;;3.72;2.78;;;14.60;97.60;;;;;;5014480;28;20021;-69
2022/06/07 03:23:49;;;;;;;3.80;2.78;;;14.70;97.60;;;;;;5017919;28;20033;-69
2022/06/07 03:26:16;;;;;;;4.22;2.80;;;14.60;97.60;;;;;;5007885;28;20029;-69
2022/06/07 03:29:05;;;;;;;3.17;2.85;;;14.60;97.50;;;;;;5003305;28;20046;-69
2022/06/07 03:31:31;;;;;;;4.00;3.25;;;14.70;97.50;;;;;;5019539;28;20033;-69
2022/06/07 03:34:00;;;;;;;3.47;2.95;;;14.70;97.50;;;;;;5020078;28;20033;-69
2022/06/07 03:36:32;;;;;;;3.60;3.30;;;14.70;97.40;;;;;;5017172;28;20033;-69
2022/06/07 03:39:00;;;;;;;3.95;3.53;;;14.60;97.30;;;;;;5020279;28;20029;-69
2022/06/07 03:41:31;;;;;;;5.13;2.85;;;14.60;97.30;;;;;;5017878;28;20068;-69
2022/06/07 03:44:07;;;;;;;4.00;2.67;;;14.60;97.30;;;;;;5015867;28;20135;-69
2022/06/07 03:46:36;;;;;;;3.20;2.88;;;14.60;97.30;;;;;;5014967;28;20132;-69
2022/06/07 03:49:03;;;;;;;4.20;3.13;;;14.60;97.30;;;;;;5012809;28;20025;-69
2022/06/07 03:51:31;;;;;;;3.53;2.50;;;14.60;97.30;;;;;;5018405;28;20035;-69
2022/06/07 03:53:57;;;;;;;3.58;2.83;;;14.60;97.40;;;;;;5020119;28;20040;-69
2022/06/07 03:56:26;;;;;;;4.28;2.70;;;14.60;97.50;;;;;;5018947;28;20038;-69
2022/06/07 03:58:56;;;;;;;3.17;2.53;;;14.60;97.50;;;;;;5018322;28;20062;-69
2022/06/07 04:01:24;;;;;;;3.42;2.80;;;14.70;97.60;;;;;;5012186;28;20044;-69
2022/06/07 04:03:54;;;;;;;3.22;2.25;;;14.80;97.50;;;;;;5016437;28;20030;-69
2022/06/07 04:06:25;;;;;;;2.78;2.45;;;14.80;97.50;;;;;;5019978;28;20075;-69
2022/06/07 04:08:54;;;;;;;5.03;2.63;;;14.80;97.50;;;;;;5014064;28;20036;-69
2022/06/07 04:11:23;;;;;;;3.08;2.70;;;14.90;97.50;;;;;;5016200;28;20444;-69
2022/06/07 04:13:58;;;;;;;3.67;2.72;;;14.90;97.40;;;;;;5013306;28;20037;-69
2022/06/07 04:16:27;;;;;;;3.15;2.20;;;14.90;97.50;;;;;;5016907;28;20042;-69
2022/06/07 04:18:58;;;;;;;3.47;2.85;;;14.90;97.30;;;;;;5017790;28;20043;-69
2022/06/07 04:21:26;;;;;;;3.00;2.70;;;14.90;97.30;;;;;;5014668;28;20036;-69
2022/06/07 04:23:57;;;;;;;3.67;2.60;;;14.90;97.30;;;;;;5016870;28;20025;-69
2022/06/07 04:26:25;;;;;;;3.33;2.83;;;15.00;97.20;;;;;;5013262;28;20041;-69
2022/06/07 04:28:56;;;;;;;2.97;2.67;;;15.00;97.10;;;;;;5009249;28;20033;-69
2022/06/07 04:31:23;;;;;;;3.90;2.35;;;15.10;97.10;;;;;;5012355;28;20780;-69
2022/06/07 04:33:58;;;;;;;3.65;2.58;;;15.10;97.00;;;;;;5018518;28;20025;-69
2022/06/07 04:36:26;;;;;;;4.07;2.50;;;15.10;96.90;;;;;;5017013;28;20037;-69
2022/06/07 04:38:56;;;;;;;3.35;2.90;;;15.10;96.90;;;;;;5019063;28;20025;-69
2022/06/07 04:41:25;;;;;;;3.42;2.90;;;15.10;96.90;;;;;;5010898;28;20088;-69
2022/06/07 04:43:57;;;;;;;4.20;3.25;;;15.20;96.90;;;;;;5015112;28;20693;-69
2022/06/07 04:46:26;;;;;;;4.45;3.42;;;15.30;96.90;;;;;;5017559;28;20385;-69
2022/06/07 04:48:55;;;;;;;3.60;3.10;;;15.30;96.80;;;;;;5010903;28;20596;-69
2022/06/07 04:51:34;;;;;;;3.20;2.85;;;15.40;96.80;;;;;;5014223;28;20029;-69
2022/06/07 04:54:10;;;;;;;4.72;3.15;;;15.40;96.80;;;;;;5015056;28;20026;-70
2022/06/07 04:56:41;;;;;;;4.10;2.83;;;15.60;96.80;;;;;;5017990;28;20521;-70
2022/06/07 04:59:07;;;;;;;3.50;3.20;;;15.70;96.70;;;;;;5011521;28;20080;-70
2022/06/07 05:01:39;;;;;;;3.88;3.22;;;15.80;96.60;;;;;;5010139;28;20021;-70
2022/06/07 05:04:11;;;;;;;3.40;2.75;;;15.80;96.40;;;;;;5012205;28;20030;-70
2022/06/07 05:06:41;;;;;;;3.40;2.92;;;15.90;96.30;;;;;;5016353;28;20037;-70
2022/06/07 05:09:22;;;;;;;3.60;2.97;;;16.00;96.20;;;;;;5013931;28;20025;-70
2022/06/07 05:11:52;;;;;;;3.60;2.90;;;16.10;96.20;;;;;;5015573;28;20843;-70
2022/06/07 05:14:21;;;;;;;3.95;3.25;;;16.10;96.10;;;;;;5013246;28;20044;-70
2022/06/07 05:16:48;;;;;;;3.53;3.10;;;16.20;96.00;;;;;;5000941;28;20090;-70
2022/06/07 05:19:20;;;;;;;3.33;3.03;;;16.40;96.10;;;;;;5012000;28;20402;-70
2022/06/07 05:21:49;;;;;;;3.13;2.83;;;16.60;95.90;;;;;;5010206;28;20026;-70
2022/06/07 05:24:16;;;;;;;3.63;2.72;;;16.80;95.50;;;;;;5015034;28;20030;-70
2022/06/07 05:26:57;;;;;;;4.32;3.10;;;17.30;95.10;;;;;;5011176;28;20035;-70
2022/06/07 05:29:44;;;;;;;3.00;2.70;;;17.60;94.30;;;;;;5026877;28;20574;-69
2022/06/07 05:32:11;;;;;;;3.08;2.78;;;17.60;93.90;;;;;;5013131;28;20439;-69
2022/06/07 05:34:41;;;;;;;6.72;2.97;;;17.60;94.00;;;;;;5016369;28;20030;-68
2022/06/07 05:37:10;;;;;;;2.90;2.40;;;17.60;94.00;;;;;;5017751;28;20041;-72
2022/06/07 05:40:09;;;;;;;3.90;2.70;;;17.60;93.80;;;;;;5036592;28;20978;-70
2022/06/07 05:42:37;;;;;;;2.65;2.45;;;17.70;94.20;;;;;;5034975;28;20026;-71
2022/06/07 05:45:05;;;;;;;3.40;2.38;;;17.70;94.30;;;;;;5028220;28;20029;-70
2022/06/07 05:47:33;;;;;;;2.65;2.35;;;17.80;94.30;;;;;;5030734;28;20021;-71
2022/06/07 05:50:01;;;;;;;2.60;2.03;;;17.80;94.40;;;;;;5026332;28;20083;-71
2022/06/07 05:52:27;;;;;;;2.25;1.98;;;17.90;94.30;;;;;;5029707;28;20030;-71
2022/06/07 05:54:57;;;;;;;2.40;2.20;;;18.10;94.30;;;;;;5025417;28;20029;-71
2022/06/07 05:57:23;;;;;;;4.07;2.00;;;18.40;94.00;;;;;;5024857;28;20032;-71
2022/06/07 05:59:49;;;;;;;1.98;1.70;;;18.40;93.60;;;;;;5027391;28;20037;-71
2022/06/07 06:02:16;;;;;;;2.72;1.83;;;18.40;93.30;;;;;;5029841;28;20051;-71
2022/06/07 06:04:42;;;;;;;2.10;1.90;;;18.50;92.80;;;;;;5023549;28;20034;-71
2022/06/07 06:07:09;;;;;;;1.88;1.70;;;18.50;92.60;;;;;;5025833;28;20045;-71
2022/06/07 06:12:32;;;;;;;1.75;1.60;;;18.70;92.00;;;;;;5033127;28;20025;-71
2022/06/07 06:15:06;;;;;;;1.80;1.27;;;18.80;91.90;;;;;;5044878;28;20123;-71
2022/06/07 06:17:32;;;;;;;1.67;1.58;;;18.80;92.00;;;;;;5029610;28;20128;-71
2022/06/07 06:20:09;;;;;;;2.63;1.30;;;18.80;92.00;;;;;;5028779;28;20057;-71
2022/06/07 06:22:40;;;;;;;1.80;1.50;;;18.90;92.00;;;;;;5022595;28;20120;-71
2022/06/07 06:25:09;;;;;;;2.15;1.38;;;19.20;92.00;;;;;;5027106;28;20440;-71
2022/06/07 06:27:35;;;;;;;3.08;1.50;;;19.60;91.30;;;;;;5027136;28;20036;-71
2022/06/07 06:30:06;;;;;;;2.92;1.35;;;20.10;90.40;;;;;;5026582;28;20068;-71
2022/06/07 06:32:35;;;;;;;1.98;1.38;;;20.60;87.60;;;;;;5044916;28;20037;-71
2022/06/07 06:35:04;;;;;;;3.67;1.20;;;21.00;82.90;;;;;;5028500;28;20040;-71
2022/06/07 06:37:31;;;;;;;1.98;1.13;;;21.40;78.40;;;;;;5022123;28;20038;-71
2022/06/07 06:40:02;;;;;;;3.03;1.08;;;21.60;76.00;;;;;;5019455;28;20032;-71
2022/06/07 06:42:30;;;;;;;1.98;1.05;;;21.70;76.80;;;;;;5027046;28;20103;-71
2022/06/07 06:45:14;;;;;;;3.88;1.58;;;21.70;75.40;;;;;;5022942;28;20409;-71
2022/06/07 06:47:44;;;;;;;1.73;1.08;;;21.80;76.90;;;;;;5025305;28;20022;-71
2022/06/07 06:50:11;;;;;;;1.92;1.30;;;22.00;77.70;;;;;;5016613;28;20057;-71
2022/06/07 06:52:37;;;;;;;3.58;1.25;;;22.10;76.20;;;;;;5007064;28;20029;-71
2022/06/07 06:55:04;;;;;;;1.98;1.10;;;22.10;77.10;;;;;;5008285;28;20026;-71
2022/06/07 06:57:30;;;;;;;2.25;1.30;;;22.10;72.00;;;;;;5014426;28;20036;-71
2022/06/07 07:00:03;;;;;;;1.30;1.20;;;22.00;69.00;;;;;;5015242;28;20037;-71
2022/06/07 07:02:31;;;;;;;3.33;1.20;;;21.90;70.20;;;;;;5013116;28;20780;-71
2022/06/07 07:05:11;;;;;;;1.98;1.27;;;21.70;74.30;;;;;;5015665;28;20642;-71
2022/06/07 07:07:40;;;;;;;1.20;1.10;;;21.50;77.60;;;;;;5009545;28;20021;-71
2022/06/07 07:10:08;;;;;;;3.35;1.00;;;21.30;77.70;;;;;;5003187;28;20115;-71
2022/06/07 07:12:35;;;;;;;1.25;1.05;;;21.20;75.70;;;;;;5009495;28;20037;-71
2022/06/07 07:15:07;;;;;;;3.03;1.40;;;21.00;73.10;;;;;;5008015;28;20409;-71
2022/06/07 07:17:41;;;;;;;2.42;1.10;;;20.80;74.10;;;;;;5007459;28;20029;-71
2022/06/07 07:20:08;;;;;;;2.38;1.40;;;20.70;76.70;;;;;;5006291;28;20468;-71
2022/06/07 07:22:38;;;;;;;1.67;1.10;;;20.80;78.50;;;;;;5012052;28;20033;-71
2022/06/07 07:25:06;;;;;;;2.42;1.30;;;21.10;72.70;;;;;;5006856;28;20060;-71
2022/06/07 07:27:32;;;;;;;0.90;0.90;;;21.50;72.00;;;;;;5010177;28;20075;-71
2022/06/07 07:30:00;;;;;;;1.60;1.13;;;21.90;73.10;;;;;;5012028;28;20757;-71
2022/06/07 07:32:28;;;;;;;4.03;1.25;;;22.40;68.20;;;;;;5012477;28;20129;-71
2022/06/07 07:34:55;;;;;;;5.38;1.08;;;22.50;68.90;;;;;;5011682;28;20129;-71
2022/06/07 07:37:23;;;;;;;2.20;1.08;;;22.80;71.00;;;;;;5013211;28;20026;-72
2022/06/07 07:39:55;;;;;;;2.03;1.13;;;23.10;68.00;;;;;;5010356;28;20029;-71
2022/06/07 07:42:24;;;;;;;1.08;0.98;;;23.40;66.20;;;;;;5009883;28;20037;-71
2022/06/07 07:45:17;;;;;;;4.32;1.20;;;23.50;66.90;;;;;;5015785;28;20069;-71
2022/06/07 07:47:44;;;;;;;1.38;1.02;;;23.30;65.30;;;;;;5014539;28;20025;-71
2022/06/07 07:50:12;;;;;;;2.35;1.10;;;23.30;65.60;;;;;;5008509;28;20029;-72
2022/06/07 07:52:41;;;;;;;2.47;1.17;;;23.50;63.70;;;;;;5012522;28;20025;-71
2022/06/07 07:55:10;;;;;;;2.97;1.08;;;23.70;63.00;;;;;;5010042;28;20025;-71
2022/06/07 07:57:38;;;;;;;1.20;1.10;;;23.90;63.50;;;;;;5012001;28;20053;-71
2022/06/07 08:00:06;;;;;;;2.88;1.27;;;24.10;63.60;;;;;;5011801;28;20044;-71
2022/06/07 08:02:39;;;;;;;2.80;1.58;;;24.20;59.70;;;;;;5014337;28;20033;-71
2022/06/07 08:05:13;;;;;;;2.08;1.20;;;24.30;61.70;;;;;;5009046;28;20060;-71
2022/06/07 08:07:40;;;;;;;5.03;1.30;;;24.60;59.30;;;;;;5018360;28;20021;-72
2022/06/07 08:10:06;;;;;;;1.23;1.10;;;24.90;57.90;;;;;;5006536;28;20482;-71
2022/06/07 08:12:32;;;;;;;1.45;0.90;;;25.00;57.30;;;;;;5009555;28;20049;-72
2022/06/07 08:14:59;;;;;;;1.00;0.93;;;24.90;54.60;;;;;;5005702;28;20112;-72
2022/06/07 08:17:27;;;;;;;2.58;0.93;;;25.30;56.60;;;;;;5015705;28;20033;-71
2022/06/07 08:19:53;;;;;;;1.67;1.10;;;25.70;54.80;;;;;;5006506;28;20065;-71
2022/06/07 08:22:21;;;;;;;1.08;0.98;;;25.90;53.70;;;;;;5017028;28;20030;-71
2022/06/07 08:24:46;;;;;;;1.75;1.05;;;26.10;52.60;;;;;;5008946;28;20498;-71
2022/06/07 08:27:12;;;;;;;1.73;1.00;;;26.00;52.20;;;;;;5009477;28;20615;-69
2022/06/07 08:29:39;;;;;;;1.90;0.90;;;26.00;53.10;;;;;;5008901;28;20038;-67
2022/06/07 08:32:06;;;;;;;2.50;1.20;;;25.80;50.00;;;;;;5014669;28;20644;-67
2022/06/07 08:37:37;;;;;;;2.92;1.10;;;25.00;50.50;;;;;;5010072;28;20452;-67
2022/06/07 08:40:15;;;;;;;;;;;25.00;51.00;;;;;;5011400;28;20038;-66
2022/06/07 08:42:56;;;;;;;8.27;1.30;;;25.10;51.00;;;;;;5009415;28;19956;-67
2022/06/07 08:45:30;;;;;;;2.30;1.05;;;24.90;51.30;;;;;;5009622;28;20034;-65
2022/06/07 08:48:26;;;;;;;2.30;1.00;;;24.90;52.30;;;;;;5011542;28;20025;-73
2022/06/07 08:51:03;;;;;;;2.38;1.00;;;24.70;51.80;;;;;;5005960;28;20037;-73
2022/06/07 08:53:34;;;;;;;1.55;1.00;;;24.50;52.20;;;;;;5010461;28;20395;-73
2022/06/07 08:56:03;;;;;;;3.10;1.33;;;24.50;51.00;;;;;;5010556;28;20080;-73
2022/06/07 08:58:34;;;;;;;1.67;1.00;;;24.40;53.70;;;;;;5009055;28;20034;-74
2022/06/07 09:01:28;;;;;;;1.75;1.13;;;24.70;50.30;;;;;;5014558;28;20035;-72
2022/06/07 09:04:05;;;;;;;2.15;1.00;;;24.80;52.00;;;;;;5012290;28;20466;-72
2022/06/07 09:06:38;;;;;;;2.83;1.08;;;25.10;50.90;;;;;;5013557;28;20513;-72
2022/06/07 09:09:06;;;;;;;1.92;0.88;;;25.30;53.00;;;;;;5013186;28;20599;-72
2022/06/07 09:12:13;;;;;;;1.48;0.95;;;25.30;48.70;;;;;;5015925;28;20124;-74
2022/06/07 09:14:49;;;;;;;1.85;0.80;;;25.20;50.20;;;;;;5011200;28;20038;-73
2022/06/07 09:17:35;;;;;;;2.10;0.90;;;25.20;49.60;;;;;;5009314;28;20061;-73
2022/06/07 09:20:03;;;;;;;2.38;0.90;;;25.10;49.80;;;;;;5014983;28;20138;-76
2022/06/07 09:22:49;;;;;;;2.85;0.82;;;25.10;50.00;;;;;;5008530;28;20484;-73
2022/06/07 09:25:28;;;;;;;2.65;0.88;;;25.30;49.60;;;;;;5011405;28;20022;-72
2022/06/07 09:27:56;;;;;;;1.73;0.70;;;25.40;49.90;;;;;;5013302;28;20048;-72
2022/06/07 09:30:38;;;;;;;0.70;0.70;;;25.30;48.50;;;;;;5011343;28;20034;-72
2022/06/07 09:33:28;;;;;;;3.45;1.00;;;24.90;49.30;;;;;;5013864;28;20493;-68
2022/06/07 09:36:08;;;;;;;2.03;0.65;;;24.60;50.60;;;;;;5012543;28;20056;-72
2022/06/07 09:38:38;;;;;;;2.47;1.10;;;24.60;51.20;;;;;;5015332;28;20404;-71
2022/06/07 09:44:26;;;;;;;2.10;0.70;;;24.80;49.80;;;;;;5011191;28;20101;-72
2022/06/07 09:47:04;;;;;;;1.85;0.63;;;24.80;47.10;;;;;;5004483;28;20270;-71
2022/06/07 09:49:35;;;;;;;0.73;0.68;;;24.70;46.70;;;;;;5011683;28;20033;-69
2022/06/07 09:52:36;;;;;;;4.13;0.70;;;24.70;48.30;;;;;;5013980;28;20041;-71
2022/06/07 09:55:06;;;;;;;2.15;0.60;;;24.70;46.70;;;;;;5010909;28;20077;-73
2022/06/07 09:57:36;;;;;;;1.08;0.57;;;24.70;46.90;;;;;;5015497;28;20515;-66
2022/06/07 10:00:11;;;;;;;0.98;0.80;;;24.80;47.20;;;;;;5013385;28;20045;-73
2022/06/07 10:03:32;;;;;;;0.90;0.57;;;25.00;46.70;;;;;;5007017;28;20667;-72
2022/06/07 10:06:07;;;;;;;4.10;0.57;;;25.20;47.50;;;;;;5011971;28;20036;-73
2022/06/07 10:08:36;;;;;;;2.58;0.55;;;25.50;45.20;;;;;;5012513;28;20087;-73
2022/06/07 10:11:12;;;;;;;1.45;0.68;;;25.70;45.00;;;;;;5004642;28;20065;-73
2022/06/07 10:13:38;;;;;;;2.53;0.80;;;25.80;44.70;;;;;;5010794;28;20485;-73
2022/06/07 10:16:17;;;;;;;1.30;0.60;;;25.80;46.40;;;;;;5007959;28;20705;-74
2022/06/07 10:18:59;;;;;;;1.27;0.70;;;25.80;45.00;;;;;;5002856;28;20034;-73
2022/06/07 10:21:28;;;;;;;1.58;0.40;;;25.90;45.30;;;;;;5010904;28;20038;-73
2022/06/07 10:24:08;;;;;;;1.98;0.52;;;26.10;43.70;;;;;;5010939;28;20045;-73
2022/06/07 10:27:03;;;;;;;1.05;0.68;;;26.10;42.00;;;;;;5015830;28;20034;-72
2022/06/07 10:29:43;;;;;;;1.55;0.60;;;26.40;42.40;;;;;;5012569;28;20029;-72
2022/06/07 10:33:01;;;;;;;3.33;0.50;;;26.80;42.00;;;;;;5012344;28;20035;-72
2022/06/07 10:35:47;;;;;;;3.03;0.55;;;27.00;41.70;;;;;;5020036;28;20029;-72
2022/06/07 10:38:20;;;;;;;0.47;0.30;;;27.10;40.10;;;;;;5010029;28;20045;-72
2022/06/07 10:41:19;;;;;;;2.55;0.60;;;26.70;39.10;;;;;;5014877;28;20618;-72
2022/06/07 10:43:52;;;;;;;0.57;0.57;;;26.00;41.10;;;;;;5018749;28;20096;-72
2022/06/07 10:46:21;;;;;;;2.40;0.80;;;25.70;42.00;;;;;;5013538;28;20057;-71
2022/06/07 10:48:56;;;;;;;0.85;0.52;;;25.50;42.60;;;;;;5013310;28;20041;-72
2022/06/07 10:54:45;;;;;;;1.50;0.60;;;25.40;43.70;;;;;;5014336;28;20034;-71
2022/06/07 10:57:29;;;;;;;2.65;0.60;;;25.30;43.50;;;;;;5013736;28;20128;-71
2022/06/07 11:00:00;;;;;;;1.13;0.60;;;25.50;44.30;;;;;;5017010;28;20480;-70
2022/06/07 11:02:50;;;;;;;1.13;0.70;;;25.90;43.40;;;;;;5015334;28;20034;-73
2022/06/07 11:11:09;;;;;;;1.77;0.80;;;25.50;42.50;;;;;;5011634;28;20072;-73
2022/06/07 11:13:50;;;;;;;0.85;0.65;;;25.40;43.30;;;;;;5016603;28;20038;-72
2022/06/07 11:16:27;;;;;;;4.10;0.60;;;25.40;45.00;;;;;;5011299;28;20033;-73
2022/06/07 11:18:53;;;;;;;1.02;0.52;;;25.60;44.70;;;;;;5010590;28;20037;-72
2022/06/07 11:21:34;;;;;;;1.30;0.70;;;25.60;44.30;;;;;;5012901;28;20083;-72
2022/06/07 11:24:21;;;;;;;1.80;0.88;;;25.60;42.00;;;;;;5011784;28;20091;-72
2022/06/07 11:26:50;;;;;;;;;;;25.50;43.60;;;;;;5010123;28;20045;-72
2022/06/07 11:29:22;;;;;;;1.10;0.80;;;25.60;44.00;;;;;;5019023;28;19913;-72
2022/06/07 11:31:49;;;;;;;1.42;0.60;;;25.90;42.10;;;;;;5012329;28;20022;-73
2022/06/07 11:34:25;;;;;;;2.55;0.65;;;26.10;42.00;;;;;;5017665;28;20092;-71
2022/06/07 11:36:56;;;;;;;2.45;0.60;;;26.30;41.60;;;;;;5012836;28;20060;-70
2022/06/07 11:39:22;;;;;;;2.08;0.68;;;26.30;41.50;;;;;;5014981;28;20045;-71
2022/06/07 11:41:52;;;;;;;1.00;0.63;;;26.30;41.70;;;;;;5004590;28;20029;-70
2022/06/07 11:44:17;;;;;;;0.73;0.50;;;26.30;42.10;;;;;;5019954;28;20502;-70
2022/06/07 11:47:00;;;;;;;1.90;0.30;;;26.10;41.60;;;;;;5011094;28;20034;-72
2022/06/07 11:49:27;;;;;;;1.20;0.45;;;25.80;41.20;;;;;;5013089;28;20065;-71
2022/06/07 11:52:11;;;;;;;1.02;0.70;;;25.80;41.60;;;;;;5011339;28;20050;-72
2022/06/07 11:54:51;;;;;;;1.50;0.52;;;25.80;42.10;;;;;;5010539;28;20068;-72
2022/06/07 11:57:32;;;;;;;1.85;0.95;;;25.80;41.40;;;;;;5009847;28;20033;-72
2022/06/07 12:00:17;;;;;;;2.83;0.55;;;25.80;43.00;;;;;;5013136;28;20096;-73
2022/06/07 12:03:08;;;;;;;1.23;0.63;;;25.70;42.40;;;;;;5010492;28;20084;-73
2022/06/07 12:05:43;;;;;;;2.05;0.60;;;25.80;42.10;;;;;;5014161;28;20041;-72
2022/06/07 12:08:29;;;;;;;3.53;0.83;;;25.70;43.10;;;;;;5011278;28;20041;-74
2022/06/07 12:11:04;;;;;;;1.65;0.60;;;25.90;41.90;;;;;;5013209;28;20577;-71
2022/06/07 12:13:49;;;;;;;10.57;0.85;;;26.20;42.00;;;;;;5015096;28;20445;-72
2022/06/07 12:16:27;;;;;;;1.90;0.45;;;26.50;42.40;;;;;;5012319;28;20717;-71
2022/06/07 12:18:55;;;;;;;0.68;0.47;;;26.20;39.50;;;;;;5012137;28;20033;-71
2022/06/07 12:21:22;;;;;;;3.30;0.70;;;25.90;41.40;;;;;;5013281;28;20030;-71
2022/06/07 12:23:52;;;;;;;1.15;0.65;;;25.90;42.90;;;;;;5013296;28;20909;-72
2022/06/07 12:26:19;;;;;;;0.47;0.47;;;26.10;41.50;;;;;;5013502;28;20025;-71
2022/06/07 12:28:55;;;;;;;0.70;0.50;;;26.30;40.60;;;;;;5009332;28;20037;-72
2022/06/07 12:31:29;;;;;;;;;;;26.30;40.40;;;;;;5017054;28;20029;-72
2022/06/07 12:34:13;;;;;;;3.33;0.57;;;26.10;39.20;;;;;;5009298;28;19935;-73
2022/06/07 12:36:39;;;;;;;4.35;0.70;;;25.90;40.80;;;;;;5010401;28;20056;-72
2022/06/07 12:39:13;;;;;;;1.35;0.50;;;25.80;40.90;;;;;;5008766;28;20037;-73
2022/06/07 12:42:08;;;;;;;2.60;0.50;;;25.70;41.30;;;;;;5009122;28;20021;-72
2022/06/07 12:44:41;;;;;;;0.70;0.60;;;25.60;42.30;;;;;;5006364;28;20040;-72
2022/06/07 12:47:19;;;;;;;1.67;0.50;;;25.50;42.10;;;;;;5018464;28;20531;-73
2022/06/07 12:49:46;;;;;;;1.13;0.60;;;25.50;41.80;;;;;;5010067;28;20030;-72
2022/06/07 12:52:19;;;;;;;2.35;0.60;;;25.30;42.70;;;;;;5011851;28;20030;-69
2022/06/07 12:54:50;;;;;;;1.65;0.80;;;25.00;42.70;;;;;;5014119;28;20120;-73
2022/06/07 12:57:25;;;;;;;1.52;0.60;;;25.00;43.30;;;;;;5010587;28;20034;-73
2022/06/07 13:00:03;;;;;;;3.85;0.90;;;25.10;41.80;;;;;;5009254;28;20712;-75
2022/06/07 13:02:45;;;;;;;1.02;0.43;;;25.30;42.00;;;;;;5017190;28;20438;-72
2022/06/07 13:05:19;;;;;;;1.85;0.40;;;25.50;42.00;;;;;;5011545;28;20029;-73
2022/06/07 13:07:48;;;;;;;0.63;0.60;;;25.50;41.50;;;;;;5009659;28;20029;-68
2022/06/07 13:10:17;;;;;;;3.47;0.57;;;25.40;42.30;;;;;;5009386;28;20033;-72
2022/06/07 13:13:05;;;;;;;1.05;0.45;;;25.30;41.50;;;;;;5012093;28;20029;-72
2022/06/07 13:15:50;;;;;;;1.63;0.63;;;25.30;41.00;;;;;;5004884;28;20049;-72
2022/06/07 13:18:15;;;;;;;4.25;0.50;;;25.50;41.90;;;;;;5016737;28;20663;-73
2022/06/07 13:20:45;;;;;;;2.00;0.50;;;25.80;40.20;;;;;;5015704;28;20022;-73
2022/06/07 13:23:17;;;;;;;2.10;0.82;;;25.90;42.00;;;;;;5013609;28;20041;-73
2022/06/07 13:25:43;;;;;;;1.08;0.40;;;26.10;42.10;;;;;;5011521;28;20430;-72
2022/06/07 13:28:22;;;;;;;2.53;0.60;;;26.10;41.30;;;;;;5011204;28;20072;-72
2022/06/07 13:30:54;;;;;;;2.70;0.55;;;26.20;41.80;;;;;;5009110;28;20044;-69
2022/06/07 13:33:21;;;;;;;0.70;0.38;;;26.30;40.00;;;;;;5007379;28;20033;-71
2022/06/07 13:35:57;;;;;;;1.17;0.55;;;26.40;41.30;;;;;;5011110;28;20056;-71
2022/06/07 13:38:42;;;;;;;0.50;0.50;;;26.40;41.40;;;;;;5009586;28;20052;-72